Bookmark and Share
Track history (hours):
 

Black Star

Last reported at 2014-Apr-23 08:31 UTC. Time now 2014-Apr-23 09:32 UTC.
Position N 51°53' E 004°18'.

Length 128 m; draft 7 m.

Type: Ship (hazmat cat B). MMSI: 256714000.

NotesDate/timePositionNaut miles runAvg speedWind from/ knotsBaromVisibWave heightAir tempDewpointWater temp
2014-Apr-23 08:31N 51°53' E 004°18'0 0.0
2014-Apr-22 13:32N 51°53' E 004°18'1 0.0
2014-Apr-21 21:04N 51°53' E 004°19'1 1.5
2014-Apr-21 20:34N 51°53' E 004°17'0 0.0
2014-Apr-20 13:33N 51°53' E 004°17'2 1.7
2014-Apr-20 12:33N 51°55' E 004°15'1010.0
2014-Apr-20 11:33N 51°60' E 004°01'1410.1
2014-Apr-20 10:11N 51°57' E 003°39'2 0.4
2014-Apr-20 06:32N 51°56' E 003°37'0 0.0
2014-Apr-20 05:32N 51°56' E 003°37'0 0.0
2014-Apr-20 04:08N 51°56' E 003°37'0 0.0
2014-Apr-19 22:29N 51°56' E 003°37'0 0.0
2014-Apr-19 21:29N 51°56' E 003°37'0 0.0
2014-Apr-19 20:29N 51°56' E 003°37'0 0.0
2014-Apr-19 19:20N 51°56' E 003°37'0 0.1
2014-Apr-19 18:11N 51°56' E 003°37'0 0.0
2014-Apr-19 17:17N 51°56' E 003°37'0 0.0
2014-Apr-19 16:26N 51°56' E 003°37'0 0.1
2014-Apr-19 15:29N 51°56' E 003°37'16 0.4
2014-Apr-17 22:30N 51°53' E 003°12'14 2.7
2014-Apr-17 17:21N 52°01' E 002°53'1114.0
2014-Apr-17 16:33N 51°52' E 003°04'1313.2
2014-Apr-17 15:33N 51°42' E 003°18'1414.1
2014-Apr-17 14:33N 51°30' E 003°29'9 8.5
2014-Apr-17 13:32N 51°26' E 003°41'8 8.0
2014-Apr-17 12:33N 51°20' E 003°49'3 2.7
2014-Apr-17 11:31N 51°17' E 003°50'4 4.2
2014-Apr-17 10:33N 51°13' E 003°48'0 0.0
2014-Apr-17 09:08N 51°13' E 003°48'0 0.0
2014-Apr-17 08:20N 51°13' E 003°48'0 0.0
2014-Apr-17 06:23N 51°13' E 003°48'0 0.0
2014-Apr-17 05:32N 51°13' E 003°48'0 0.0
2014-Apr-17 04:23N 51°13' E 003°48'0 0.0
2014-Apr-17 03:23N 51°13' E 003°48'0 0.0
2014-Apr-17 02:26N 51°13' E 003°48'0 0.0
2014-Apr-17 01:26N 51°13' E 003°48'0 0.0
2014-Apr-17 00:11N 51°13' E 003°48'0 0.0
2014-Apr-16 23:26N 51°13' E 003°48'0 0.0
2014-Apr-16 22:14N 51°13' E 003°48'0 0.0
2014-Apr-16 21:23N 51°13' E 003°48'0 0.0
2014-Apr-16 20:32N 51°13' E 003°48'0 0.0
2014-Apr-16 19:32N 51°13' E 003°48'0 0.0
2014-Apr-16 18:08N 51°13' E 003°48'0 0.0
2014-Apr-16 17:20N 51°13' E 003°48'0 0.0
2014-Apr-16 16:08N 51°13' E 003°48'0 0.0
2014-Apr-16 13:14N 51°13' E 003°48'0 0.0
2014-Apr-16 12:33N 51°13' E 003°48'5 4.8
2014-Apr-16 11:33N 51°18' E 003°50'0 0.0
2014-Apr-16 05:11N 51°18' E 003°50'0 0.0
2014-Apr-16 04:31N 51°18' E 003°50'0 0.0
2014-Apr-16 03:09N 51°18' E 003°50'0 0.0
2014-Apr-15 15:15N 51°18' E 003°50'1 1.5
2014-Apr-15 14:33N 51°19' E 003°49'2 1.0
2014-Apr-15 12:33N 51°21' E 003°48'1010.0
2014-Apr-15 11:33N 51°25' E 003°34'1616.2
2014-Apr-15 10:34N 51°24' E 003°08'1414.1
2014-Apr-15 09:34N 51°21' E 002°46'10 9.7
2014-Apr-15 08:34N 51°22' E 002°31'19 9.4
2014-Apr-15 06:30N 51°13' E 002°03'9 9.2
2014-Apr-15 05:32N 51°09' E 001°51'18 9.1
2014-Apr-15 03:33N 50°56' E 001°30'35 8.7
2014-Apr-14 23:34N 50°30' E 000°55'10 9.8
2014-Apr-14 22:33N 50°27' E 000°40'1010.0
2014-Apr-14 21:33N 50°24' E 000°25'5012.5
2014-Apr-14 17:33N 50°10' W 000°51'1313.4
2014-Apr-14 16:34N 50°07' W 001°11'  

Dump ship's entire track history

sailing weather and tide predictions

Black Star — 9HA2911 — position and weather